sensor_id;sensor_type;location;lat;lon;timestamp;P1;durP1;ratioP1;P2;durP2;ratioP2
22160;SDS011;49035;48.812;11.762;2023-05-23T00:01:32;26.60;;;20.05;;
22160;SDS011;49035;48.812;11.762;2023-05-23T00:04:01;26.07;;;20.27;;
22160;SDS011;49035;48.812;11.762;2023-05-23T00:06:27;27.75;;;19.95;;
22160;SDS011;49035;48.812;11.762;2023-05-23T00:08:52;27.37;;;19.90;;
22160;SDS011;49035;48.812;11.762;2023-05-23T00:11:18;28.23;;;20.50;;
22160;SDS011;49035;48.812;11.762;2023-05-23T00:13:48;23.83;;;18.08;;
22160;SDS011;49035;48.812;11.762;2023-05-23T00:16:15;25.58;;;18.70;;
22160;SDS011;49035;48.812;11.762;2023-05-23T00:18:41;23.13;;;18.42;;
22160;SDS011;49035;48.812;11.762;2023-05-23T00:21:07;25.85;;;19.58;;
22160;SDS011;49035;48.812;11.762;2023-05-23T00:23:33;23.48;;;18.25;;
22160;SDS011;49035;48.812;11.762;2023-05-23T00:25:59;23.53;;;17.93;;
22160;SDS011;49035;48.812;11.762;2023-05-23T00:28:25;23.65;;;17.73;;
22160;SDS011;49035;48.812;11.762;2023-05-23T00:30:51;21.20;;;17.30;;
22160;SDS011;49035;48.812;11.762;2023-05-23T00:33:16;23.15;;;17.80;;
22160;SDS011;49035;48.812;11.762;2023-05-23T00:35:46;24.33;;;18.13;;
22160;SDS011;49035;48.812;11.762;2023-05-23T00:38:12;23.47;;;16.93;;
22160;SDS011;49035;48.812;11.762;2023-05-23T00:40:38;23.20;;;17.38;;
22160;SDS011;49035;48.812;11.762;2023-05-23T00:43:04;22.73;;;17.15;;
22160;SDS011;49035;48.812;11.762;2023-05-23T00:45:30;23.60;;;17.47;;
22160;SDS011;49035;48.812;11.762;2023-05-23T00:47:56;21.63;;;16.25;;
22160;SDS011;49035;48.812;11.762;2023-05-23T00:50:23;22.38;;;17.73;;
22160;SDS011;49035;48.812;11.762;2023-05-23T00:52:53;28.80;;;18.17;;
22160;SDS011;49035;48.812;11.762;2023-05-23T00:55:19;24.17;;;17.53;;
22160;SDS011;49035;48.812;11.762;2023-05-23T00:57:45;25.17;;;18.13;;
22160;SDS011;49035;48.812;11.762;2023-05-23T01:00:11;24.17;;;17.80;;
22160;SDS011;49035;48.812;11.762;2023-05-23T01:02:41;24.52;;;17.92;;
22160;SDS011;49035;48.812;11.762;2023-05-23T01:05:13;26.53;;;18.50;;
22160;SDS011;49035;48.812;11.762;2023-05-23T01:07:48;24.07;;;17.97;;
22160;SDS011;49035;48.812;11.762;2023-05-23T01:10:15;27.90;;;18.52;;
22160;SDS011;49035;48.812;11.762;2023-05-23T01:15:37;23.53;;;17.70;;
22160;SDS011;49035;48.812;11.762;2023-05-23T01:18:12;26.93;;;18.03;;
22160;SDS011;49035;48.812;11.762;2023-05-23T01:20:47;22.77;;;17.60;;
22160;SDS011;49035;48.812;11.762;2023-05-23T01:23:28;23.43;;;17.00;;
22160;SDS011;49035;48.812;11.762;2023-05-23T01:26:30;24.00;;;17.27;;
22160;SDS011;49035;48.812;11.762;2023-05-23T01:29:13;27.05;;;18.80;;
22160;SDS011;49035;48.812;11.762;2023-05-23T01:31:46;25.67;;;17.55;;
22160;SDS011;49035;48.812;11.762;2023-05-23T01:34:16;23.73;;;17.80;;
22160;SDS011;49035;48.812;11.762;2023-05-23T01:36:45;24.05;;;17.27;;
22160;SDS011;49035;48.812;11.762;2023-05-23T01:39:15;28.60;;;18.20;;
22160;SDS011;49035;48.812;11.762;2023-05-23T01:41:41;21.45;;;16.70;;
22160;SDS011;49035;48.812;11.762;2023-05-23T01:44:06;26.63;;;17.97;;
22160;SDS011;49035;48.812;11.762;2023-05-23T01:46:33;24.48;;;17.92;;
22160;SDS011;49035;48.812;11.762;2023-05-23T01:49:00;27.55;;;18.40;;
22160;SDS011;49035;48.812;11.762;2023-05-23T01:51:27;23.15;;;17.17;;
22160;SDS011;49035;48.812;11.762;2023-05-23T01:53:54;29.83;;;18.65;;
22160;SDS011;49035;48.812;11.762;2023-05-23T01:56:21;25.90;;;18.70;;
22160;SDS011;49035;48.812;11.762;2023-05-23T01:58:47;27.45;;;18.15;;
22160;SDS011;49035;48.812;11.762;2023-05-23T02:01:12;25.13;;;18.40;;
22160;SDS011;49035;48.812;11.762;2023-05-23T02:03:39;26.90;;;19.73;;
22160;SDS011;49035;48.812;11.762;2023-05-23T02:06:04;24.10;;;18.17;;
22160;SDS011;49035;48.812;11.762;2023-05-23T02:08:30;29.65;;;18.00;;
22160;SDS011;49035;48.812;11.762;2023-05-23T02:10:55;24.70;;;18.02;;
22160;SDS011;49035;48.812;11.762;2023-05-23T02:13:21;24.70;;;18.60;;
22160;SDS011;49035;48.812;11.762;2023-05-23T02:15:47;25.83;;;17.23;;
22160;SDS011;49035;48.812;11.762;2023-05-23T02:18:12;27.75;;;18.33;;
22160;SDS011;49035;48.812;11.762;2023-05-23T02:20:38;26.90;;;19.47;;
22160;SDS011;49035;48.812;11.762;2023-05-23T02:23:05;31.47;;;19.73;;
22160;SDS011;49035;48.812;11.762;2023-05-23T02:25:30;28.10;;;19.33;;
22160;SDS011;49035;48.812;11.762;2023-05-23T02:27:56;27.10;;;18.38;;
22160;SDS011;49035;48.812;11.762;2023-05-23T02:30:21;27.70;;;19.98;;
22160;SDS011;49035;48.812;11.762;2023-05-23T02:32:47;28.15;;;20.63;;
22160;SDS011;49035;48.812;11.762;2023-05-23T02:35:12;28.60;;;20.67;;
22160;SDS011;49035;48.812;11.762;2023-05-23T02:37:38;26.57;;;18.97;;
22160;SDS011;49035;48.812;11.762;2023-05-23T02:40:04;25.10;;;19.92;;
22160;SDS011;49035;48.812;11.762;2023-05-23T02:42:31;30.58;;;19.35;;
22160;SDS011;49035;48.812;11.762;2023-05-23T02:44:57;25.02;;;18.98;;
22160;SDS011;49035;48.812;11.762;2023-05-23T02:47:23;28.80;;;19.33;;
22160;SDS011;49035;48.812;11.762;2023-05-23T02:49:48;25.73;;;18.92;;
22160;SDS011;49035;48.812;11.762;2023-05-23T02:52:14;25.13;;;19.30;;
22160;SDS011;49035;48.812;11.762;2023-05-23T02:54:39;26.25;;;18.85;;
22160;SDS011;49035;48.812;11.762;2023-05-23T02:57:05;28.38;;;18.52;;
22160;SDS011;49035;48.812;11.762;2023-05-23T02:59:30;27.45;;;18.85;;
22160;SDS011;49035;48.812;11.762;2023-05-23T03:01:56;28.17;;;19.35;;
22160;SDS011;49035;48.812;11.762;2023-05-23T03:04:21;24.40;;;17.98;;
22160;SDS011;49035;48.812;11.762;2023-05-23T03:06:47;26.80;;;18.35;;
22160;SDS011;49035;48.812;11.762;2023-05-23T03:09:14;25.10;;;18.50;;
22160;SDS011;49035;48.812;11.762;2023-05-23T03:11:41;25.67;;;18.40;;
22160;SDS011;49035;48.812;11.762;2023-05-23T03:14:07;27.95;;;18.38;;
22160;SDS011;49035;48.812;11.762;2023-05-23T03:16:32;29.48;;;20.25;;
22160;SDS011;49035;48.812;11.762;2023-05-23T03:18:58;22.80;;;17.98;;
22160;SDS011;49035;48.812;11.762;2023-05-23T03:21:24;26.90;;;18.77;;
22160;SDS011;49035;48.812;11.762;2023-05-23T03:23:50;22.98;;;17.95;;
22160;SDS011;49035;48.812;11.762;2023-05-23T03:26:15;27.60;;;18.10;;
22160;SDS011;49035;48.812;11.762;2023-05-23T03:28:41;24.00;;;17.58;;
22160;SDS011;49035;48.812;11.762;2023-05-23T03:31:06;27.13;;;19.27;;
22160;SDS011;49035;48.812;11.762;2023-05-23T03:33:32;28.30;;;19.95;;
22160;SDS011;49035;48.812;11.762;2023-05-23T03:35:57;27.13;;;19.30;;
22160;SDS011;49035;48.812;11.762;2023-05-23T03:38:23;30.60;;;20.23;;
22160;SDS011;49035;48.812;11.762;2023-05-23T03:40:48;30.05;;;19.60;;
22160;SDS011;49035;48.812;11.762;2023-05-23T03:43:14;29.02;;;19.67;;
22160;SDS011;49035;48.812;11.762;2023-05-23T03:45:40;31.85;;;20.25;;
22160;SDS011;49035;48.812;11.762;2023-05-23T03:48:05;28.02;;;20.30;;
22160;SDS011;49035;48.812;11.762;2023-05-23T03:50:31;29.33;;;19.90;;
22160;SDS011;49035;48.812;11.762;2023-05-23T03:52:56;28.55;;;20.65;;
22160;SDS011;49035;48.812;11.762;2023-05-23T03:55:23;28.35;;;21.45;;
22160;SDS011;49035;48.812;11.762;2023-05-23T03:57:49;27.10;;;20.23;;
22160;SDS011;49035;48.812;11.762;2023-05-23T04:00:18;30.08;;;20.73;;
22160;SDS011;49035;48.812;11.762;2023-05-23T04:02:44;27.33;;;20.15;;
22160;SDS011;49035;48.812;11.762;2023-05-23T04:05:10;26.65;;;20.02;;
22160;SDS011;49035;48.812;11.762;2023-05-23T04:07:37;31.08;;;20.52;;
22160;SDS011;49035;48.812;11.762;2023-05-23T04:10:03;29.98;;;20.52;;
22160;SDS011;49035;48.812;11.762;2023-05-23T04:12:29;26.90;;;20.95;;
22160;SDS011;49035;48.812;11.762;2023-05-23T04:14:55;28.05;;;20.60;;
22160;SDS011;49035;48.812;11.762;2023-05-23T04:17:21;27.42;;;20.75;;
22160;SDS011;49035;48.812;11.762;2023-05-23T04:19:47;28.25;;;21.05;;
22160;SDS011;49035;48.812;11.762;2023-05-23T04:22:13;28.38;;;19.73;;
22160;SDS011;49035;48.812;11.762;2023-05-23T04:24:39;26.27;;;19.90;;
22160;SDS011;49035;48.812;11.762;2023-05-23T04:27:05;25.13;;;19.20;;
22160;SDS011;49035;48.812;11.762;2023-05-23T04:29:31;28.85;;;18.55;;
22160;SDS011;49035;48.812;11.762;2023-05-23T04:31:58;24.08;;;18.70;;
22160;SDS011;49035;48.812;11.762;2023-05-23T04:34:24;22.77;;;16.88;;
22160;SDS011;49035;48.812;11.762;2023-05-23T04:36:51;22.55;;;16.40;;
22160;SDS011;49035;48.812;11.762;2023-05-23T04:39:17;19.73;;;15.77;;
22160;SDS011;49035;48.812;11.762;2023-05-23T04:41:44;20.75;;;15.73;;
22160;SDS011;49035;48.812;11.762;2023-05-23T04:44:10;20.20;;;14.90;;
22160;SDS011;49035;48.812;11.762;2023-05-23T04:46:36;17.70;;;14.45;;
22160;SDS011;49035;48.812;11.762;2023-05-23T04:49:05;18.83;;;14.32;;
22160;SDS011;49035;48.812;11.762;2023-05-23T04:51:31;18.70;;;14.43;;
22160;SDS011;49035;48.812;11.762;2023-05-23T04:53:57;15.68;;;13.15;;
22160;SDS011;49035;48.812;11.762;2023-05-23T04:56:23;17.77;;;12.88;;
22160;SDS011;49035;48.812;11.762;2023-05-23T04:58:52;14.02;;;12.45;;
22160;SDS011;49035;48.812;11.762;2023-05-23T05:01:18;18.13;;;12.93;;
22160;SDS011;49035;48.812;11.762;2023-05-23T05:03:44;15.73;;;13.02;;
22160;SDS011;49035;48.812;11.762;2023-05-23T05:06:11;16.13;;;13.13;;
22160;SDS011;49035;48.812;11.762;2023-05-23T05:08:37;14.85;;;12.70;;
22160;SDS011;49035;48.812;11.762;2023-05-23T05:11:04;17.45;;;13.18;;
22160;SDS011;49035;48.812;11.762;2023-05-23T05:13:30;12.85;;;11.15;;
22160;SDS011;49035;48.812;11.762;2023-05-23T05:15:55;17.17;;;13.23;;
22160;SDS011;49035;48.812;11.762;2023-05-23T05:18:21;18.05;;;13.85;;
22160;SDS011;49035;48.812;11.762;2023-05-23T05:20:46;26.38;;;15.23;;
22160;SDS011;49035;48.812;11.762;2023-05-23T05:23:12;18.27;;;13.88;;
22160;SDS011;49035;48.812;11.762;2023-05-23T05:25:38;16.67;;;13.85;;
22160;SDS011;49035;48.812;11.762;2023-05-23T05:28:05;17.95;;;14.38;;
22160;SDS011;49035;48.812;11.762;2023-05-23T05:30:31;19.20;;;14.38;;
22160;SDS011;49035;48.812;11.762;2023-05-23T05:33:00;19.75;;;14.60;;
22160;SDS011;49035;48.812;11.762;2023-05-23T05:35:28;18.17;;;14.40;;
22160;SDS011;49035;48.812;11.762;2023-05-23T05:37:56;17.20;;;14.13;;
22160;SDS011;49035;48.812;11.762;2023-05-23T05:40:22;16.10;;;12.75;;
22160;SDS011;49035;48.812;11.762;2023-05-23T05:42:48;19.30;;;13.82;;
22160;SDS011;49035;48.812;11.762;2023-05-23T05:45:13;13.90;;;11.55;;
22160;SDS011;49035;48.812;11.762;2023-05-23T05:47:39;19.63;;;13.38;;
22160;SDS011;49035;48.812;11.762;2023-05-23T05:50:05;14.43;;;11.90;;
22160;SDS011;49035;48.812;11.762;2023-05-23T05:52:34;16.15;;;13.05;;
22160;SDS011;49035;48.812;11.762;2023-05-23T05:55:04;12.60;;;11.27;;
22160;SDS011;49035;48.812;11.762;2023-05-23T05:57:30;17.05;;;12.27;;
22160;SDS011;49035;48.812;11.762;2023-05-23T05:59:57;14.13;;;11.98;;
22160;SDS011;49035;48.812;11.762;2023-05-23T06:02:22;14.52;;;12.55;;
22160;SDS011;49035;48.812;11.762;2023-05-23T06:04:48;12.05;;;10.77;;
22160;SDS011;49035;48.812;11.762;2023-05-23T06:07:14;12.45;;;11.10;;
22160;SDS011;49035;48.812;11.762;2023-05-23T06:09:39;15.48;;;11.43;;
22160;SDS011;49035;48.812;11.762;2023-05-23T06:12:05;14.43;;;11.88;;
22160;SDS011;49035;48.812;11.762;2023-05-23T06:14:30;15.75;;;11.13;;
22160;SDS011;49035;48.812;11.762;2023-05-23T06:16:56;13.02;;;11.27;;
22160;SDS011;49035;48.812;11.762;2023-05-23T06:19:22;11.52;;;10.38;;
22160;SDS011;49035;48.812;11.762;2023-05-23T06:21:47;15.10;;;10.82;;
22160;SDS011;49035;48.812;11.762;2023-05-23T06:24:13;18.55;;;12.27;;
22160;SDS011;49035;48.812;11.762;2023-05-23T06:26:38;13.43;;;11.82;;
22160;SDS011;49035;48.812;11.762;2023-05-23T06:29:04;12.45;;;10.60;;
22160;SDS011;49035;48.812;11.762;2023-05-23T06:31:29;14.40;;;10.45;;
22160;SDS011;49035;48.812;11.762;2023-05-23T06:33:55;11.68;;;10.00;;
22160;SDS011;49035;48.812;11.762;2023-05-23T06:36:21;12.38;;;10.13;;
22160;SDS011;49035;48.812;11.762;2023-05-23T06:38:46;15.20;;;9.88;;
22160;SDS011;49035;48.812;11.762;2023-05-23T06:41:12;13.18;;;10.18;;
22160;SDS011;49035;48.812;11.762;2023-05-23T06:43:37;12.98;;;8.63;;
22160;SDS011;49035;48.812;11.762;2023-05-23T06:46:03;17.50;;;9.23;;
22160;SDS011;49035;48.812;11.762;2023-05-23T06:48:29;12.13;;;8.60;;
22160;SDS011;49035;48.812;11.762;2023-05-23T06:50:54;11.35;;;8.68;;
22160;SDS011;49035;48.812;11.762;2023-05-23T06:53:20;16.15;;;9.48;;
22160;SDS011;49035;48.812;11.762;2023-05-23T06:55:45;13.95;;;9.18;;
22160;SDS011;49035;48.812;11.762;2023-05-23T06:58:11;11.73;;;8.82;;
22160;SDS011;49035;48.812;11.762;2023-05-23T07:00:37;12.55;;;9.60;;
22160;SDS011;49035;48.812;11.762;2023-05-23T07:03:02;10.77;;;9.63;;
22160;SDS011;49035;48.812;11.762;2023-05-23T07:05:30;10.23;;;8.52;;
22160;SDS011;49035;48.812;11.762;2023-05-23T07:07:57;10.90;;;9.13;;
22160;SDS011;49035;48.812;11.762;2023-05-23T07:10:22;10.63;;;9.20;;
22160;SDS011;49035;48.812;11.762;2023-05-23T07:12:48;13.57;;;8.63;;
22160;SDS011;49035;48.812;11.762;2023-05-23T07:15:14;9.63;;;8.30;;
22160;SDS011;49035;48.812;11.762;2023-05-23T07:17:40;11.55;;;9.10;;
22160;SDS011;49035;48.812;11.762;2023-05-23T07:20:06;13.45;;;9.35;;
22160;SDS011;49035;48.812;11.762;2023-05-23T07:22:32;11.55;;;8.45;;
22160;SDS011;49035;48.812;11.762;2023-05-23T07:24:57;10.63;;;8.57;;
22160;SDS011;49035;48.812;11.762;2023-05-23T07:27:23;10.57;;;8.52;;
22160;SDS011;49035;48.812;11.762;2023-05-23T07:29:50;14.00;;;8.98;;
22160;SDS011;49035;48.812;11.762;2023-05-23T07:32:16;14.18;;;8.45;;
22160;SDS011;49035;48.812;11.762;2023-05-23T07:34:42;12.25;;;8.98;;
22160;SDS011;49035;48.812;11.762;2023-05-23T07:37:07;11.30;;;8.65;;
22160;SDS011;49035;48.812;11.762;2023-05-23T07:39:33;12.43;;;9.10;;
22160;SDS011;49035;48.812;11.762;2023-05-23T07:41:58;12.60;;;8.93;;
22160;SDS011;49035;48.812;11.762;2023-05-23T07:44:24;11.75;;;8.98;;
22160;SDS011;49035;48.812;11.762;2023-05-23T07:46:50;13.45;;;8.80;;
22160;SDS011;49035;48.812;11.762;2023-05-23T07:49:15;10.70;;;8.98;;
22160;SDS011;49035;48.812;11.762;2023-05-23T07:51:41;13.32;;;9.02;;
22160;SDS011;49035;48.812;11.762;2023-05-23T07:54:07;11.50;;;8.50;;
22160;SDS011;49035;48.812;11.762;2023-05-23T07:56:33;12.27;;;7.82;;
22160;SDS011;49035;48.812;11.762;2023-05-23T07:58:58;9.68;;;7.82;;
22160;SDS011;49035;48.812;11.762;2023-05-23T08:01:24;13.40;;;8.60;;
22160;SDS011;49035;48.812;11.762;2023-05-23T08:03:50;9.75;;;7.55;;
22160;SDS011;49035;48.812;11.762;2023-05-23T08:06:15;9.88;;;7.85;;
22160;SDS011;49035;48.812;11.762;2023-05-23T08:08:41;11.10;;;7.85;;
22160;SDS011;49035;48.812;11.762;2023-05-23T08:11:07;10.48;;;7.43;;
22160;SDS011;49035;48.812;11.762;2023-05-23T08:13:33;10.50;;;7.30;;
22160;SDS011;49035;48.812;11.762;2023-05-23T08:15:59;8.85;;;7.85;;
22160;SDS011;49035;48.812;11.762;2023-05-23T08:18:25;8.88;;;7.90;;
22160;SDS011;49035;48.812;11.762;2023-05-23T08:20:50;9.38;;;7.50;;
22160;SDS011;49035;48.812;11.762;2023-05-23T08:23:16;10.20;;;8.43;;
22160;SDS011;49035;48.812;11.762;2023-05-23T08:25:42;9.70;;;8.20;;
22160;SDS011;49035;48.812;11.762;2023-05-23T08:28:07;11.07;;;8.70;;
22160;SDS011;49035;48.812;11.762;2023-05-23T08:30:33;9.85;;;8.50;;
22160;SDS011;49035;48.812;11.762;2023-05-23T08:32:59;11.65;;;8.20;;
22160;SDS011;49035;48.812;11.762;2023-05-23T08:35:28;9.98;;;8.57;;
22160;SDS011;49035;48.812;11.762;2023-05-23T08:37:59;10.50;;;8.40;;
22160;SDS011;49035;48.812;11.762;2023-05-23T08:40:25;10.10;;;8.27;;
22160;SDS011;49035;48.812;11.762;2023-05-23T08:42:53;11.57;;;9.25;;
22160;SDS011;49035;48.812;11.762;2023-05-23T08:45:19;10.63;;;8.88;;
22160;SDS011;49035;48.812;11.762;2023-05-23T08:47:47;10.95;;;7.88;;
22160;SDS011;49035;48.812;11.762;2023-05-23T08:50:15;10.80;;;8.43;;
22160;SDS011;49035;48.812;11.762;2023-05-23T08:52:42;11.13;;;8.70;;
22160;SDS011;49035;48.812;11.762;2023-05-23T08:55:19;11.13;;;8.73;;
22160;SDS011;49035;48.812;11.762;2023-05-23T08:57:48;10.82;;;8.32;;
22160;SDS011;49035;48.812;11.762;2023-05-23T09:00:16;13.57;;;8.80;;
22160;SDS011;49035;48.812;11.762;2023-05-23T09:02:42;11.70;;;8.38;;
22160;SDS011;49035;48.812;11.762;2023-05-23T09:05:09;12.93;;;9.70;;
22160;SDS011;49035;48.812;11.762;2023-05-23T09:07:35;11.70;;;9.52;;
22160;SDS011;49035;48.812;11.762;2023-05-23T09:10:01;10.77;;;8.57;;
22160;SDS011;49035;48.812;11.762;2023-05-23T09:12:32;11.20;;;8.60;;
22160;SDS011;49035;48.812;11.762;2023-05-23T09:15:03;13.13;;;9.15;;
22160;SDS011;49035;48.812;11.762;2023-05-23T09:17:30;10.80;;;9.00;;
22160;SDS011;49035;48.812;11.762;2023-05-23T09:19:57;11.45;;;8.65;;
22160;SDS011;49035;48.812;11.762;2023-05-23T09:22:24;11.57;;;8.55;;
22160;SDS011;49035;48.812;11.762;2023-05-23T09:24:51;11.20;;;8.88;;
22160;SDS011;49035;48.812;11.762;2023-05-23T09:27:18;11.63;;;8.35;;
22160;SDS011;49035;48.812;11.762;2023-05-23T09:29:43;11.25;;;8.98;;
22160;SDS011;49035;48.812;11.762;2023-05-23T09:32:12;11.13;;;9.02;;
22160;SDS011;49035;48.812;11.762;2023-05-23T09:34:43;13.02;;;9.48;;
22160;SDS011;49035;48.812;11.762;2023-05-23T09:37:19;9.82;;;8.77;;
22160;SDS011;49035;48.812;11.762;2023-05-23T09:39:48;13.70;;;9.00;;
22160;SDS011;49035;48.812;11.762;2023-05-23T09:42:20;11.82;;;8.88;;
22160;SDS011;49035;48.812;11.762;2023-05-23T09:44:49;10.75;;;8.55;;
22160;SDS011;49035;48.812;11.762;2023-05-23T09:47:15;12.98;;;8.95;;
22160;SDS011;49035;48.812;11.762;2023-05-23T09:49:44;15.02;;;8.85;;
22160;SDS011;49035;48.812;11.762;2023-05-23T09:52:11;11.43;;;8.52;;
22160;SDS011;49035;48.812;11.762;2023-05-23T09:54:37;11.07;;;9.05;;
22160;SDS011;49035;48.812;11.762;2023-05-23T09:57:04;10.23;;;8.50;;
22160;SDS011;49035;48.812;11.762;2023-05-23T09:59:40;11.65;;;8.65;;
22160;SDS011;49035;48.812;11.762;2023-05-23T10:02:12;12.20;;;8.25;;
22160;SDS011;49035;48.812;11.762;2023-05-23T10:04:40;9.60;;;8.60;;
22160;SDS011;49035;48.812;11.762;2023-05-23T10:07:16;12.40;;;8.68;;
22160;SDS011;49035;48.812;11.762;2023-05-23T10:09:44;11.95;;;7.95;;
22160;SDS011;49035;48.812;11.762;2023-05-23T10:15:14;13.20;;;7.70;;
22160;SDS011;49035;48.812;11.762;2023-05-23T10:17:45;9.90;;;8.07;;
22160;SDS011;49035;48.812;11.762;2023-05-23T10:20:30;10.02;;;8.45;;
22160;SDS011;49035;48.812;11.762;2023-05-23T10:22:58;13.07;;;8.27;;
22160;SDS011;49035;48.812;11.762;2023-05-23T10:25:24;8.75;;;7.72;;
22160;SDS011;49035;48.812;11.762;2023-05-23T10:27:52;11.00;;;7.53;;
22160;SDS011;49035;48.812;11.762;2023-05-23T10:30:23;10.38;;;8.07;;
22160;SDS011;49035;48.812;11.762;2023-05-23T10:32:52;9.35;;;8.02;;
22160;SDS011;49035;48.812;11.762;2023-05-23T10:35:23;9.43;;;7.88;;
22160;SDS011;49035;48.812;11.762;2023-05-23T10:38:01;9.07;;;7.72;;
22160;SDS011;49035;48.812;11.762;2023-05-23T10:40:42;9.90;;;7.72;;
22160;SDS011;49035;48.812;11.762;2023-05-23T10:45:46;10.48;;;7.90;;
22160;SDS011;49035;48.812;11.762;2023-05-23T10:48:21;10.35;;;8.90;;
22160;SDS011;49035;48.812;11.762;2023-05-23T10:51:03;11.55;;;8.50;;
22160;SDS011;49035;48.812;11.762;2023-05-23T10:53:39;10.55;;;8.68;;
22160;SDS011;49035;48.812;11.762;2023-05-23T10:56:10;12.32;;;9.45;;
22160;SDS011;49035;48.812;11.762;2023-05-23T10:58:44;12.68;;;8.18;;
22160;SDS011;49035;48.812;11.762;2023-05-23T11:01:14;13.77;;;8.45;;
22160;SDS011;49035;48.812;11.762;2023-05-23T11:09:00;10.10;;;8.20;;
22160;SDS011;49035;48.812;11.762;2023-05-23T11:11:50;11.10;;;8.85;;
22160;SDS011;49035;48.812;11.762;2023-05-23T11:15:17;11.65;;;8.98;;
22160;SDS011;49035;48.812;11.762;2023-05-23T11:17:16;11.02;;;8.48;;
22160;SDS011;49035;48.812;11.762;2023-05-23T11:22:29;12.85;;;8.55;;
22160;SDS011;49035;48.812;11.762;2023-05-23T11:24:55;10.05;;;8.50;;
22160;SDS011;49035;48.812;11.762;2023-05-23T11:30:11;12.38;;;8.10;;
22160;SDS011;49035;48.812;11.762;2023-05-23T11:32:38;11.70;;;7.90;;
22160;SDS011;49035;48.812;11.762;2023-05-23T11:35:05;8.35;;;7.55;;
22160;SDS011;49035;48.812;11.762;2023-05-23T11:37:32;11.20;;;7.85;;
22160;SDS011;49035;48.812;11.762;2023-05-23T11:39:59;15.98;;;8.63;;
22160;SDS011;49035;48.812;11.762;2023-05-23T11:42:51;9.35;;;7.45;;
22160;SDS011;49035;48.812;11.762;2023-05-23T11:45:18;11.43;;;8.68;;
22160;SDS011;49035;48.812;11.762;2023-05-23T11:47:44;12.50;;;8.43;;
22160;SDS011;49035;48.812;11.762;2023-05-23T11:50:10;14.18;;;8.52;;
22160;SDS011;49035;48.812;11.762;2023-05-23T11:52:35;12.70;;;9.02;;
22160;SDS011;49035;48.812;11.762;2023-05-23T11:55:01;11.98;;;8.80;;
22160;SDS011;49035;48.812;11.762;2023-05-23T11:57:27;11.32;;;8.00;;
22160;SDS011;49035;48.812;11.762;2023-05-23T11:59:52;9.27;;;7.45;;
22160;SDS011;49035;48.812;11.762;2023-05-23T12:02:19;10.15;;;8.38;;
22160;SDS011;49035;48.812;11.762;2023-05-23T12:04:47;10.60;;;8.20;;
22160;SDS011;49035;48.812;11.762;2023-05-23T12:07:16;9.80;;;8.10;;
22160;SDS011;49035;48.812;11.762;2023-05-23T12:09:44;10.88;;;7.22;;
22160;SDS011;49035;48.812;11.762;2023-05-23T12:12:11;11.10;;;8.02;;
22160;SDS011;49035;48.812;11.762;2023-05-23T12:14:37;9.55;;;7.35;;
22160;SDS011;49035;48.812;11.762;2023-05-23T12:17:10;10.68;;;7.43;;
22160;SDS011;49035;48.812;11.762;2023-05-23T12:19:36;10.55;;;7.32;;
22160;SDS011;49035;48.812;11.762;2023-05-23T12:22:06;8.45;;;7.10;;
22160;SDS011;49035;48.812;11.762;2023-05-23T12:24:32;8.77;;;7.75;;
22160;SDS011;49035;48.812;11.762;2023-05-23T12:26:59;10.85;;;8.45;;
22160;SDS011;49035;48.812;11.762;2023-05-23T12:29:29;11.95;;;7.93;;
22160;SDS011;49035;48.812;11.762;2023-05-23T12:31:57;8.50;;;7.60;;
22160;SDS011;49035;48.812;11.762;2023-05-23T12:34:24;10.93;;;8.05;;
22160;SDS011;49035;48.812;11.762;2023-05-23T12:36:54;10.93;;;7.38;;
22160;SDS011;49035;48.812;11.762;2023-05-23T12:39:24;7.43;;;6.72;;
22160;SDS011;49035;48.812;11.762;2023-05-23T12:41:51;10.07;;;7.57;;
22160;SDS011;49035;48.812;11.762;2023-05-23T12:44:20;8.23;;;7.32;;
22160;SDS011;49035;48.812;11.762;2023-05-23T12:46:46;8.02;;;7.20;;
22160;SDS011;49035;48.812;11.762;2023-05-23T12:49:12;11.60;;;6.93;;
22160;SDS011;49035;48.812;11.762;2023-05-23T12:51:39;9.07;;;7.25;;
22160;SDS011;49035;48.812;11.762;2023-05-23T12:54:07;9.05;;;6.57;;
22160;SDS011;49035;48.812;11.762;2023-05-23T12:56:32;7.97;;;7.18;;
22160;SDS011;49035;48.812;11.762;2023-05-23T12:58:58;7.97;;;6.40;;
22160;SDS011;49035;48.812;11.762;2023-05-23T13:01:26;9.40;;;6.75;;
22160;SDS011;49035;48.812;11.762;2023-05-23T13:03:52;9.27;;;6.78;;
22160;SDS011;49035;48.812;11.762;2023-05-23T13:06:17;12.20;;;7.22;;
22160;SDS011;49035;48.812;11.762;2023-05-23T13:08:43;8.80;;;7.00;;
22160;SDS011;49035;48.812;11.762;2023-05-23T13:11:09;14.43;;;6.80;;
22160;SDS011;49035;48.812;11.762;2023-05-23T13:13:35;10.38;;;6.18;;
22160;SDS011;49035;48.812;11.762;2023-05-23T13:16:00;9.93;;;6.63;;
22160;SDS011;49035;48.812;11.762;2023-05-23T13:18:26;8.00;;;6.70;;
22160;SDS011;49035;48.812;11.762;2023-05-23T13:20:52;8.90;;;6.43;;
22160;SDS011;49035;48.812;11.762;2023-05-23T13:23:17;10.43;;;6.88;;
22160;SDS011;49035;48.812;11.762;2023-05-23T13:25:43;9.50;;;6.57;;
22160;SDS011;49035;48.812;11.762;2023-05-23T13:28:09;7.43;;;6.00;;
22160;SDS011;49035;48.812;11.762;2023-05-23T13:30:34;9.90;;;6.28;;
22160;SDS011;49035;48.812;11.762;2023-05-23T13:33:00;9.40;;;6.78;;
22160;SDS011;49035;48.812;11.762;2023-05-23T13:35:26;8.27;;;6.38;;
22160;SDS011;49035;48.812;11.762;2023-05-23T13:37:51;7.88;;;6.35;;
22160;SDS011;49035;48.812;11.762;2023-05-23T13:40:18;6.63;;;5.80;;
22160;SDS011;49035;48.812;11.762;2023-05-23T13:42:46;6.90;;;5.53;;
22160;SDS011;49035;48.812;11.762;2023-05-23T13:45:13;9.88;;;5.55;;
22160;SDS011;49035;48.812;11.762;2023-05-23T13:47:39;9.70;;;6.05;;
22160;SDS011;49035;48.812;11.762;2023-05-23T13:50:05;6.43;;;5.65;;
22160;SDS011;49035;48.812;11.762;2023-05-23T13:52:32;7.40;;;5.28;;
22160;SDS011;49035;48.812;11.762;2023-05-23T13:54:58;5.20;;;4.55;;
22160;SDS011;49035;48.812;11.762;2023-05-23T13:57:25;9.80;;;4.78;;
22160;SDS011;49035;48.812;11.762;2023-05-23T13:59:51;5.97;;;4.68;;
22160;SDS011;49035;48.812;11.762;2023-05-23T14:02:16;6.82;;;4.18;;
22160;SDS011;49035;48.812;11.762;2023-05-23T14:04:42;5.95;;;4.15;;
22160;SDS011;49035;48.812;11.762;2023-05-23T14:07:08;4.70;;;3.95;;
22160;SDS011;49035;48.812;11.762;2023-05-23T14:09:33;5.13;;;3.65;;
22160;SDS011;49035;48.812;11.762;2023-05-23T14:11:59;5.40;;;3.55;;
22160;SDS011;49035;48.812;11.762;2023-05-23T14:14:25;5.18;;;3.85;;
22160;SDS011;49035;48.812;11.762;2023-05-23T14:16:51;7.20;;;4.13;;
22160;SDS011;49035;48.812;11.762;2023-05-23T14:19:17;5.45;;;3.80;;
22160;SDS011;49035;48.812;11.762;2023-05-23T14:21:43;5.90;;;4.15;;
22160;SDS011;49035;48.812;11.762;2023-05-23T14:24:09;3.80;;;3.30;;
22160;SDS011;49035;48.812;11.762;2023-05-23T14:26:36;4.45;;;3.38;;
22160;SDS011;49035;48.812;11.762;2023-05-23T14:29:01;3.97;;;3.50;;
22160;SDS011;49035;48.812;11.762;2023-05-23T14:31:27;7.18;;;3.60;;
22160;SDS011;49035;48.812;11.762;2023-05-23T14:33:53;4.65;;;3.25;;
22160;SDS011;49035;48.812;11.762;2023-05-23T14:36:19;4.03;;;3.08;;
22160;SDS011;49035;48.812;11.762;2023-05-23T14:38:44;6.20;;;2.70;;